sensor_id;sensor_type;location;lat;lon;timestamp;P1;durP1;ratioP1;P2;durP2;ratioP2
6105;SDS011;3083;51.508;7.966;2023-07-16T00:00:58;4.00;;;2.00;;
6105;SDS011;3083;51.508;7.966;2023-07-16T00:03:25;5.97;;;2.00;;
6105;SDS011;3083;51.508;7.966;2023-07-16T00:05:52;3.97;;;2.20;;
6105;SDS011;3083;51.508;7.966;2023-07-16T00:08:18;7.60;;;2.27;;
6105;SDS011;3083;51.508;7.966;2023-07-16T00:10:45;3.60;;;2.03;;
6105;SDS011;3083;51.508;7.966;2023-07-16T00:13:12;4.23;;;2.00;;
6105;SDS011;3083;51.508;7.966;2023-07-16T00:15:40;4.67;;;1.97;;
6105;SDS011;3083;51.508;7.966;2023-07-16T00:18:07;6.30;;;2.07;;
6105;SDS011;3083;51.508;7.966;2023-07-16T00:20:34;4.57;;;2.47;;
6105;SDS011;3083;51.508;7.966;2023-07-16T00:23:01;4.50;;;2.50;;
6105;SDS011;3083;51.508;7.966;2023-07-16T00:25:28;6.20;;;2.50;;
6105;SDS011;3083;51.508;7.966;2023-07-16T00:27:55;7.03;;;2.60;;
6105;SDS011;3083;51.508;7.966;2023-07-16T00:30:22;5.57;;;2.80;;
6105;SDS011;3083;51.508;7.966;2023-07-16T00:32:50;5.10;;;2.40;;
6105;SDS011;3083;51.508;7.966;2023-07-16T00:35:17;4.40;;;2.33;;
6105;SDS011;3083;51.508;7.966;2023-07-16T00:37:43;7.20;;;3.00;;
6105;SDS011;3083;51.508;7.966;2023-07-16T00:40:11;6.27;;;3.23;;
6105;SDS011;3083;51.508;7.966;2023-07-16T00:42:38;5.07;;;2.90;;
6105;SDS011;3083;51.508;7.966;2023-07-16T00:45:09;5.90;;;3.57;;
6105;SDS011;3083;51.508;7.966;2023-07-16T00:47:38;5.30;;;3.00;;
6105;SDS011;3083;51.508;7.966;2023-07-16T00:50:07;6.97;;;3.07;;
6105;SDS011;3083;51.508;7.966;2023-07-16T00:52:36;8.37;;;3.60;;
6105;SDS011;3083;51.508;7.966;2023-07-16T00:55:03;11.53;;;2.77;;
6105;SDS011;3083;51.508;7.966;2023-07-16T00:57:31;7.47;;;3.63;;
6105;SDS011;3083;51.508;7.966;2023-07-16T00:59:59;5.43;;;3.40;;
6105;SDS011;3083;51.508;7.966;2023-07-16T01:02:26;5.77;;;2.97;;
6105;SDS011;3083;51.508;7.966;2023-07-16T01:04:53;6.23;;;3.50;;
6105;SDS011;3083;51.508;7.966;2023-07-16T01:07:21;7.73;;;3.70;;
6105;SDS011;3083;51.508;7.966;2023-07-16T01:09:51;9.37;;;3.57;;
6105;SDS011;3083;51.508;7.966;2023-07-16T01:12:20;5.77;;;3.57;;
6105;SDS011;3083;51.508;7.966;2023-07-16T01:14:48;6.00;;;3.30;;
6105;SDS011;3083;51.508;7.966;2023-07-16T01:17:16;5.40;;;3.40;;
6105;SDS011;3083;51.508;7.966;2023-07-16T01:19:43;5.87;;;3.57;;
6105;SDS011;3083;51.508;7.966;2023-07-16T01:22:16;7.33;;;3.70;;
6105;SDS011;3083;51.508;7.966;2023-07-16T01:24:59;5.90;;;3.60;;
6105;SDS011;3083;51.508;7.966;2023-07-16T01:27:42;7.33;;;3.70;;
6105;SDS011;3083;51.508;7.966;2023-07-16T01:30:24;7.97;;;4.00;;
6105;SDS011;3083;51.508;7.966;2023-07-16T01:32:54;5.93;;;3.50;;
6105;SDS011;3083;51.508;7.966;2023-07-16T01:35:22;5.83;;;3.53;;
6105;SDS011;3083;51.508;7.966;2023-07-16T01:37:49;6.60;;;3.67;;
6105;SDS011;3083;51.508;7.966;2023-07-16T01:40:16;7.70;;;4.10;;
6105;SDS011;3083;51.508;7.966;2023-07-16T01:42:43;5.27;;;3.50;;
6105;SDS011;3083;51.508;7.966;2023-07-16T01:45:10;6.30;;;4.23;;
6105;SDS011;3083;51.508;7.966;2023-07-16T01:47:44;6.67;;;4.03;;
6105;SDS011;3083;51.508;7.966;2023-07-16T01:50:22;6.07;;;4.23;;
6105;SDS011;3083;51.508;7.966;2023-07-16T01:52:49;6.43;;;4.20;;
6105;SDS011;3083;51.508;7.966;2023-07-16T01:55:15;7.43;;;4.70;;
6105;SDS011;3083;51.508;7.966;2023-07-16T01:57:42;7.60;;;3.97;;
6105;SDS011;3083;51.508;7.966;2023-07-16T02:00:10;10.13;;;4.10;;
6105;SDS011;3083;51.508;7.966;2023-07-16T02:02:37;11.30;;;3.77;;
6105;SDS011;3083;51.508;7.966;2023-07-16T02:05:06;6.70;;;3.77;;
6105;SDS011;3083;51.508;7.966;2023-07-16T02:07:33;6.73;;;3.83;;
6105;SDS011;3083;51.508;7.966;2023-07-16T02:10:00;6.17;;;3.80;;
6105;SDS011;3083;51.508;7.966;2023-07-16T02:12:27;7.00;;;3.87;;
6105;SDS011;3083;51.508;7.966;2023-07-16T02:14:54;7.60;;;4.43;;
6105;SDS011;3083;51.508;7.966;2023-07-16T02:17:21;6.90;;;4.50;;
6105;SDS011;3083;51.508;7.966;2023-07-16T02:19:48;7.50;;;4.87;;
6105;SDS011;3083;51.508;7.966;2023-07-16T02:22:16;8.93;;;4.60;;
6105;SDS011;3083;51.508;7.966;2023-07-16T02:24:43;7.73;;;4.50;;
6105;SDS011;3083;51.508;7.966;2023-07-16T02:27:10;9.33;;;5.17;;
6105;SDS011;3083;51.508;7.966;2023-07-16T02:29:37;9.70;;;5.37;;
6105;SDS011;3083;51.508;7.966;2023-07-16T02:32:04;9.47;;;5.43;;
6105;SDS011;3083;51.508;7.966;2023-07-16T02:34:31;9.83;;;5.40;;
6105;SDS011;3083;51.508;7.966;2023-07-16T02:36:58;8.70;;;5.60;;
6105;SDS011;3083;51.508;7.966;2023-07-16T02:39:26;8.33;;;5.00;;
6105;SDS011;3083;51.508;7.966;2023-07-16T02:41:53;10.80;;;6.33;;
6105;SDS011;3083;51.508;7.966;2023-07-16T02:44:20;10.30;;;6.67;;
6105;SDS011;3083;51.508;7.966;2023-07-16T02:46:47;9.80;;;6.27;;
6105;SDS011;3083;51.508;7.966;2023-07-16T02:49:13;10.47;;;6.57;;
6105;SDS011;3083;51.508;7.966;2023-07-16T02:51:40;14.23;;;6.43;;
6105;SDS011;3083;51.508;7.966;2023-07-16T02:54:07;10.10;;;6.10;;
6105;SDS011;3083;51.508;7.966;2023-07-16T02:56:35;10.30;;;6.10;;
6105;SDS011;3083;51.508;7.966;2023-07-16T02:59:02;11.43;;;5.87;;
6105;SDS011;3083;51.508;7.966;2023-07-16T03:01:29;8.70;;;5.23;;
6105;SDS011;3083;51.508;7.966;2023-07-16T03:03:56;12.30;;;5.57;;
6105;SDS011;3083;51.508;7.966;2023-07-16T03:06:23;8.03;;;5.47;;
6105;SDS011;3083;51.508;7.966;2023-07-16T03:08:50;8.67;;;5.47;;
6105;SDS011;3083;51.508;7.966;2023-07-16T03:11:17;6.40;;;4.00;;
6105;SDS011;3083;51.508;7.966;2023-07-16T03:13:45;6.27;;;3.90;;
6105;SDS011;3083;51.508;7.966;2023-07-16T03:16:12;7.20;;;4.37;;
6105;SDS011;3083;51.508;7.966;2023-07-16T03:18:39;7.53;;;3.90;;
6105;SDS011;3083;51.508;7.966;2023-07-16T03:21:06;6.30;;;3.10;;
6105;SDS011;3083;51.508;7.966;2023-07-16T03:23:33;5.40;;;3.10;;
6105;SDS011;3083;51.508;7.966;2023-07-16T03:25:59;11.40;;;3.90;;
6105;SDS011;3083;51.508;7.966;2023-07-16T03:28:26;7.43;;;3.27;;
6105;SDS011;3083;51.508;7.966;2023-07-16T03:30:55;5.50;;;3.50;;
6105;SDS011;3083;51.508;7.966;2023-07-16T03:33:22;6.13;;;3.80;;
6105;SDS011;3083;51.508;7.966;2023-07-16T03:35:49;8.07;;;3.50;;
6105;SDS011;3083;51.508;7.966;2023-07-16T03:38:16;5.87;;;3.30;;
6105;SDS011;3083;51.508;7.966;2023-07-16T03:40:46;5.70;;;3.40;;
6105;SDS011;3083;51.508;7.966;2023-07-16T03:43:13;5.47;;;3.07;;
6105;SDS011;3083;51.508;7.966;2023-07-16T03:45:40;7.23;;;2.90;;
6105;SDS011;3083;51.508;7.966;2023-07-16T03:48:08;7.73;;;3.13;;
6105;SDS011;3083;51.508;7.966;2023-07-16T03:50:35;5.17;;;3.00;;
6105;SDS011;3083;51.508;7.966;2023-07-16T03:53:02;5.00;;;2.90;;
6105;SDS011;3083;51.508;7.966;2023-07-16T03:55:29;5.03;;;2.90;;
6105;SDS011;3083;51.508;7.966;2023-07-16T03:57:56;9.67;;;3.03;;
6105;SDS011;3083;51.508;7.966;2023-07-16T04:00:23;8.57;;;3.43;;
6105;SDS011;3083;51.508;7.966;2023-07-16T04:02:50;7.17;;;2.90;;
6105;SDS011;3083;51.508;7.966;2023-07-16T04:05:18;6.90;;;3.10;;
6105;SDS011;3083;51.508;7.966;2023-07-16T04:07:45;5.90;;;3.00;;
6105;SDS011;3083;51.508;7.966;2023-07-16T04:10:12;6.07;;;2.80;;
6105;SDS011;3083;51.508;7.966;2023-07-16T04:12:39;7.27;;;3.50;;
6105;SDS011;3083;51.508;7.966;2023-07-16T04:15:07;4.87;;;2.30;;
6105;SDS011;3083;51.508;7.966;2023-07-16T04:17:35;6.03;;;2.80;;
6105;SDS011;3083;51.508;7.966;2023-07-16T04:20:02;5.00;;;2.90;;
6105;SDS011;3083;51.508;7.966;2023-07-16T04:22:32;6.13;;;3.10;;
6105;SDS011;3083;51.508;7.966;2023-07-16T04:24:59;5.07;;;2.70;;
6105;SDS011;3083;51.508;7.966;2023-07-16T04:27:26;4.73;;;2.53;;
6105;SDS011;3083;51.508;7.966;2023-07-16T04:29:53;5.73;;;2.73;;
6105;SDS011;3083;51.508;7.966;2023-07-16T04:32:20;5.10;;;2.50;;
6105;SDS011;3083;51.508;7.966;2023-07-16T04:34:47;5.57;;;2.70;;
6105;SDS011;3083;51.508;7.966;2023-07-16T04:37:13;5.83;;;2.37;;
6105;SDS011;3083;51.508;7.966;2023-07-16T04:39:42;5.17;;;2.50;;
6105;SDS011;3083;51.508;7.966;2023-07-16T04:42:08;5.40;;;2.53;;
6105;SDS011;3083;51.508;7.966;2023-07-16T04:44:35;6.37;;;2.80;;
6105;SDS011;3083;51.508;7.966;2023-07-16T04:47:02;8.30;;;2.77;;
6105;SDS011;3083;51.508;7.966;2023-07-16T04:49:29;5.80;;;2.70;;
6105;SDS011;3083;51.508;7.966;2023-07-16T04:52:00;7.40;;;2.40;;
6105;SDS011;3083;51.508;7.966;2023-07-16T04:54:26;7.53;;;2.40;;
6105;SDS011;3083;51.508;7.966;2023-07-16T04:56:55;5.57;;;2.77;;
6105;SDS011;3083;51.508;7.966;2023-07-16T04:59:21;5.40;;;2.47;;
6105;SDS011;3083;51.508;7.966;2023-07-16T05:01:48;6.50;;;2.77;;
6105;SDS011;3083;51.508;7.966;2023-07-16T05:04:15;7.07;;;2.47;;
6105;SDS011;3083;51.508;7.966;2023-07-16T05:06:42;7.60;;;2.60;;
6105;SDS011;3083;51.508;7.966;2023-07-16T05:09:09;8.63;;;2.80;;
6105;SDS011;3083;51.508;7.966;2023-07-16T05:11:36;4.77;;;2.70;;
6105;SDS011;3083;51.508;7.966;2023-07-16T05:14:05;4.40;;;2.53;;
6105;SDS011;3083;51.508;7.966;2023-07-16T05:16:31;6.83;;;2.70;;
6105;SDS011;3083;51.508;7.966;2023-07-16T05:18:58;4.63;;;2.70;;
6105;SDS011;3083;51.508;7.966;2023-07-16T05:21:25;7.90;;;2.70;;
6105;SDS011;3083;51.508;7.966;2023-07-16T05:23:52;5.63;;;2.83;;
6105;SDS011;3083;51.508;7.966;2023-07-16T05:26:19;8.70;;;2.83;;
6105;SDS011;3083;51.508;7.966;2023-07-16T05:28:46;6.70;;;3.00;;
6105;SDS011;3083;51.508;7.966;2023-07-16T05:31:14;9.83;;;3.07;;
6105;SDS011;3083;51.508;7.966;2023-07-16T05:33:41;9.23;;;3.20;;
6105;SDS011;3083;51.508;7.966;2023-07-16T05:36:07;5.13;;;3.10;;
6105;SDS011;3083;51.508;7.966;2023-07-16T05:38:34;7.63;;;3.00;;
6105;SDS011;3083;51.508;7.966;2023-07-16T05:41:01;5.63;;;3.10;;
6105;SDS011;3083;51.508;7.966;2023-07-16T05:43:29;5.43;;;2.83;;
6105;SDS011;3083;51.508;7.966;2023-07-16T05:45:56;6.80;;;2.90;;
6105;SDS011;3083;51.508;7.966;2023-07-16T05:48:25;6.27;;;3.17;;
6105;SDS011;3083;51.508;7.966;2023-07-16T05:50:51;6.77;;;3.43;;
6105;SDS011;3083;51.508;7.966;2023-07-16T05:53:18;6.50;;;3.60;;
6105;SDS011;3083;51.508;7.966;2023-07-16T05:55:45;7.73;;;2.83;;
6105;SDS011;3083;51.508;7.966;2023-07-16T05:58:14;11.90;;;3.00;;
6105;SDS011;3083;51.508;7.966;2023-07-16T06:00:41;7.80;;;3.33;;
6105;SDS011;3083;51.508;7.966;2023-07-16T06:03:08;5.40;;;2.93;;
6105;SDS011;3083;51.508;7.966;2023-07-16T06:05:36;9.00;;;3.00;;
6105;SDS011;3083;51.508;7.966;2023-07-16T06:08:03;10.63;;;3.40;;
6105;SDS011;3083;51.508;7.966;2023-07-16T06:10:30;5.43;;;3.10;;
6105;SDS011;3083;51.508;7.966;2023-07-16T06:13:01;5.50;;;2.57;;
6105;SDS011;3083;51.508;7.966;2023-07-16T06:15:28;6.17;;;2.73;;
6105;SDS011;3083;51.508;7.966;2023-07-16T06:17:54;6.13;;;3.00;;
6105;SDS011;3083;51.508;7.966;2023-07-16T06:20:21;7.53;;;3.33;;
6105;SDS011;3083;51.508;7.966;2023-07-16T06:22:49;5.30;;;2.97;;
6105;SDS011;3083;51.508;7.966;2023-07-16T06:25:16;7.40;;;3.30;;
6105;SDS011;3083;51.508;7.966;2023-07-16T06:27:43;9.47;;;3.43;;
6105;SDS011;3083;51.508;7.966;2023-07-16T06:30:10;8.67;;;3.40;;
6105;SDS011;3083;51.508;7.966;2023-07-16T06:32:37;5.10;;;3.17;;
6105;SDS011;3083;51.508;7.966;2023-07-16T06:35:04;7.63;;;3.10;;
6105;SDS011;3083;51.508;7.966;2023-07-16T06:37:31;7.63;;;3.50;;
6105;SDS011;3083;51.508;7.966;2023-07-16T06:39:59;8.13;;;3.63;;
6105;SDS011;3083;51.508;7.966;2023-07-16T06:42:26;6.87;;;3.50;;
6105;SDS011;3083;51.508;7.966;2023-07-16T06:44:53;9.20;;;3.67;;
6105;SDS011;3083;51.508;7.966;2023-07-16T06:47:20;8.93;;;3.80;;
6105;SDS011;3083;51.508;7.966;2023-07-16T06:49:47;8.50;;;3.67;;
6105;SDS011;3083;51.508;7.966;2023-07-16T06:52:20;6.43;;;3.60;;
6105;SDS011;3083;51.508;7.966;2023-07-16T06:54:47;9.73;;;4.20;;
6105;SDS011;3083;51.508;7.966;2023-07-16T06:57:15;6.77;;;4.10;;
6105;SDS011;3083;51.508;7.966;2023-07-16T06:59:42;11.87;;;4.07;;
6105;SDS011;3083;51.508;7.966;2023-07-16T07:02:09;9.23;;;4.73;;
6105;SDS011;3083;51.508;7.966;2023-07-16T07:04:37;9.33;;;4.33;;
6105;SDS011;3083;51.508;7.966;2023-07-16T07:07:04;9.17;;;4.30;;
6105;SDS011;3083;51.508;7.966;2023-07-16T07:09:32;8.97;;;3.80;;
6105;SDS011;3083;51.508;7.966;2023-07-16T07:11:59;6.27;;;4.03;;
6105;SDS011;3083;51.508;7.966;2023-07-16T07:14:27;9.60;;;4.10;;
6105;SDS011;3083;51.508;7.966;2023-07-16T07:16:54;8.03;;;4.73;;
6105;SDS011;3083;51.508;7.966;2023-07-16T07:19:21;7.13;;;4.37;;
6105;SDS011;3083;51.508;7.966;2023-07-16T07:21:48;7.17;;;3.83;;
6105;SDS011;3083;51.508;7.966;2023-07-16T07:24:15;6.60;;;4.13;;
6105;SDS011;3083;51.508;7.966;2023-07-16T07:26:42;8.40;;;4.80;;
6105;SDS011;3083;51.508;7.966;2023-07-16T07:29:09;8.67;;;4.10;;
6105;SDS011;3083;51.508;7.966;2023-07-16T07:31:38;8.40;;;4.40;;
6105;SDS011;3083;51.508;7.966;2023-07-16T07:34:04;6.87;;;3.90;;
6105;SDS011;3083;51.508;7.966;2023-07-16T07:36:31;7.40;;;4.20;;
6105;SDS011;3083;51.508;7.966;2023-07-16T07:38:58;8.50;;;3.90;;
6105;SDS011;3083;51.508;7.966;2023-07-16T07:41:25;7.77;;;4.10;;
6105;SDS011;3083;51.508;7.966;2023-07-16T07:43:52;8.37;;;3.93;;
6105;SDS011;3083;51.508;7.966;2023-07-16T07:46:19;9.27;;;3.90;;
6105;SDS011;3083;51.508;7.966;2023-07-16T07:48:47;5.97;;;3.80;;
6105;SDS011;3083;51.508;7.966;2023-07-16T07:51:14;7.30;;;4.30;;
6105;SDS011;3083;51.508;7.966;2023-07-16T07:53:41;7.60;;;3.90;;
6105;SDS011;3083;51.508;7.966;2023-07-16T07:56:07;7.20;;;4.50;;
6105;SDS011;3083;51.508;7.966;2023-07-16T07:58:34;9.60;;;4.47;;
6105;SDS011;3083;51.508;7.966;2023-07-16T08:01:05;6.93;;;3.97;;
6105;SDS011;3083;51.508;7.966;2023-07-16T08:03:32;7.80;;;3.93;;
6105;SDS011;3083;51.508;7.966;2023-07-16T08:06:00;9.10;;;4.57;;
6105;SDS011;3083;51.508;7.966;2023-07-16T08:08:28;7.73;;;4.40;;
6105;SDS011;3083;51.508;7.966;2023-07-16T08:10:55;7.90;;;3.80;;
6105;SDS011;3083;51.508;7.966;2023-07-16T08:13:21;7.80;;;4.23;;
6105;SDS011;3083;51.508;7.966;2023-07-16T08:15:48;9.70;;;4.13;;
6105;SDS011;3083;51.508;7.966;2023-07-16T08:18:15;6.80;;;4.10;;
6105;SDS011;3083;51.508;7.966;2023-07-16T08:20:42;8.60;;;4.10;;
6105;SDS011;3083;51.508;7.966;2023-07-16T08:23:10;7.33;;;4.67;;
6105;SDS011;3083;51.508;7.966;2023-07-16T08:25:38;6.50;;;4.30;;
6105;SDS011;3083;51.508;7.966;2023-07-16T08:28:05;6.73;;;4.13;;
6105;SDS011;3083;51.508;7.966;2023-07-16T08:30:32;6.37;;;4.40;;
6105;SDS011;3083;51.508;7.966;2023-07-16T08:32:59;8.40;;;4.87;;
6105;SDS011;3083;51.508;7.966;2023-07-16T08:35:26;7.63;;;4.30;;
6105;SDS011;3083;51.508;7.966;2023-07-16T08:37:53;6.03;;;4.07;;
6105;SDS011;3083;51.508;7.966;2023-07-16T08:40:21;8.20;;;4.40;;
6105;SDS011;3083;51.508;7.966;2023-07-16T08:42:48;9.00;;;4.60;;
6105;SDS011;3083;51.508;7.966;2023-07-16T08:45:15;7.60;;;4.77;;
6105;SDS011;3083;51.508;7.966;2023-07-16T08:47:45;7.23;;;4.30;;
6105;SDS011;3083;51.508;7.966;2023-07-16T08:50:12;9.73;;;4.10;;
6105;SDS011;3083;51.508;7.966;2023-07-16T08:52:39;9.07;;;4.30;;
6105;SDS011;3083;51.508;7.966;2023-07-16T08:55:06;10.80;;;3.87;;
6105;SDS011;3083;51.508;7.966;2023-07-16T08:57:35;7.60;;;3.93;;
6105;SDS011;3083;51.508;7.966;2023-07-16T09:00:03;8.87;;;4.70;;
6105;SDS011;3083;51.508;7.966;2023-07-16T09:02:31;8.60;;;4.07;;
6105;SDS011;3083;51.508;7.966;2023-07-16T09:04:58;9.33;;;4.47;;
6105;SDS011;3083;51.508;7.966;2023-07-16T09:07:25;10.73;;;4.37;;
6105;SDS011;3083;51.508;7.966;2023-07-16T09:09:56;7.87;;;3.90;;
6105;SDS011;3083;51.508;7.966;2023-07-16T09:12:26;12.80;;;4.30;;
6105;SDS011;3083;51.508;7.966;2023-07-16T09:14:55;7.40;;;4.07;;
6105;SDS011;3083;51.508;7.966;2023-07-16T09:17:23;6.33;;;3.83;;
6105;SDS011;3083;51.508;7.966;2023-07-16T09:19:50;10.77;;;4.40;;
6105;SDS011;3083;51.508;7.966;2023-07-16T09:22:18;7.70;;;4.13;;
6105;SDS011;3083;51.508;7.966;2023-07-16T09:24:45;7.40;;;3.97;;
6105;SDS011;3083;51.508;7.966;2023-07-16T09:27:12;7.60;;;4.13;;
6105;SDS011;3083;51.508;7.966;2023-07-16T09:29:39;8.10;;;4.20;;
6105;SDS011;3083;51.508;7.966;2023-07-16T09:32:08;8.87;;;4.10;;
6105;SDS011;3083;51.508;7.966;2023-07-16T09:34:35;8.07;;;4.17;;
6105;SDS011;3083;51.508;7.966;2023-07-16T09:37:04;8.50;;;3.73;;
6105;SDS011;3083;51.508;7.966;2023-07-16T09:39:31;6.97;;;4.00;;
6105;SDS011;3083;51.508;7.966;2023-07-16T09:41:58;7.23;;;4.30;;
6105;SDS011;3083;51.508;7.966;2023-07-16T09:44:25;7.27;;;4.17;;
6105;SDS011;3083;51.508;7.966;2023-07-16T09:46:52;8.33;;;4.30;;
6105;SDS011;3083;51.508;7.966;2023-07-16T09:49:21;8.47;;;4.30;;
6105;SDS011;3083;51.508;7.966;2023-07-16T09:51:48;7.23;;;4.50;;
6105;SDS011;3083;51.508;7.966;2023-07-16T09:54:18;7.40;;;4.70;;
6105;SDS011;3083;51.508;7.966;2023-07-16T09:56:47;8.60;;;4.00;;
6105;SDS011;3083;51.508;7.966;2023-07-16T09:59:17;7.57;;;3.80;;
6105;SDS011;3083;51.508;7.966;2023-07-16T10:01:48;7.60;;;3.80;;
6105;SDS011;3083;51.508;7.966;2023-07-16T10:04:16;12.23;;;4.40;;
6105;SDS011;3083;51.508;7.966;2023-07-16T10:06:52;8.27;;;4.47;;
6105;SDS011;3083;51.508;7.966;2023-07-16T10:09:36;7.23;;;4.20;;
6105;SDS011;3083;51.508;7.966;2023-07-16T10:12:11;5.93;;;3.90;;
6105;SDS011;3083;51.508;7.966;2023-07-16T10:14:39;7.60;;;4.70;;
6105;SDS011;3083;51.508;7.966;2023-07-16T10:17:07;7.63;;;4.20;;
6105;SDS011;3083;51.508;7.966;2023-07-16T10:19:45;8.43;;;4.03;;
6105;SDS011;3083;51.508;7.966;2023-07-16T10:22:14;6.43;;;4.23;;
6105;SDS011;3083;51.508;7.966;2023-07-16T10:24:41;7.90;;;4.20;;
6105;SDS011;3083;51.508;7.966;2023-07-16T10:27:08;7.30;;;4.50;;
6105;SDS011;3083;51.508;7.966;2023-07-16T10:29:35;8.00;;;4.10;;
6105;SDS011;3083;51.508;7.966;2023-07-16T10:32:02;6.57;;;4.50;;
6105;SDS011;3083;51.508;7.966;2023-07-16T10:34:34;6.37;;;4.43;;
6105;SDS011;3083;51.508;7.966;2023-07-16T10:37:01;8.80;;;4.83;;
6105;SDS011;3083;51.508;7.966;2023-07-16T10:39:30;12.07;;;4.87;;
6105;SDS011;3083;51.508;7.966;2023-07-16T10:41:57;6.77;;;4.83;;
6105;SDS011;3083;51.508;7.966;2023-07-16T10:44:24;9.67;;;4.70;;
6105;SDS011;3083;51.508;7.966;2023-07-16T10:46:53;8.13;;;5.30;;
6105;SDS011;3083;51.508;7.966;2023-07-16T10:49:26;7.97;;;4.80;;
6105;SDS011;3083;51.508;7.966;2023-07-16T10:51:54;8.00;;;5.10;;
6105;SDS011;3083;51.508;7.966;2023-07-16T10:54:21;8.50;;;5.10;;
6105;SDS011;3083;51.508;7.966;2023-07-16T10:56:50;7.30;;;4.97;;
6105;SDS011;3083;51.508;7.966;2023-07-16T10:59:17;9.50;;;4.73;;
6105;SDS011;3083;51.508;7.966;2023-07-16T11:01:45;8.30;;;5.13;;
6105;SDS011;3083;51.508;7.966;2023-07-16T11:04:12;10.67;;;5.33;;
6105;SDS011;3083;51.508;7.966;2023-07-16T11:06:38;10.37;;;5.30;;
6105;SDS011;3083;51.508;7.966;2023-07-16T11:09:06;8.13;;;4.97;;
6105;SDS011;3083;51.508;7.966;2023-07-16T11:11:33;8.50;;;5.00;;
6105;SDS011;3083;51.508;7.966;2023-07-16T11:14:04;8.13;;;4.73;;
6105;SDS011;3083;51.508;7.966;2023-07-16T11:16:32;8.13;;;5.03;;
6105;SDS011;3083;51.508;7.966;2023-07-16T11:19:02;9.53;;;4.83;;
6105;SDS011;3083;51.508;7.966;2023-07-16T11:21:30;8.67;;;5.00;;
6105;SDS011;3083;51.508;7.966;2023-07-16T11:24:06;8.60;;;5.60;;
6105;SDS011;3083;51.508;7.966;2023-07-16T11:26:34;7.63;;;5.03;;
6105;SDS011;3083;51.508;7.966;2023-07-16T11:29:13;10.07;;;5.40;;
6105;SDS011;3083;51.508;7.966;2023-07-16T11:31:40;9.77;;;4.73;;
6105;SDS011;3083;51.508;7.966;2023-07-16T11:34:08;6.90;;;4.70;;
6105;SDS011;3083;51.508;7.966;2023-07-16T11:36:39;7.50;;;4.67;;
6105;SDS011;3083;51.508;7.966;2023-07-16T11:39:06;8.90;;;5.17;;
6105;SDS011;3083;51.508;7.966;2023-07-16T11:41:33;6.10;;;4.23;;
6105;SDS011;3083;51.508;7.966;2023-07-16T11:43:59;7.63;;;3.93;;
6105;SDS011;3083;51.508;7.966;2023-07-16T11:46:31;6.00;;;3.80;;
6105;SDS011;3083;51.508;7.966;2023-07-16T11:48:59;7.50;;;4.10;;
6105;SDS011;3083;51.508;7.966;2023-07-16T11:51:26;5.93;;;3.53;;
6105;SDS011;3083;51.508;7.966;2023-07-16T11:53:55;5.63;;;3.40;;
6105;SDS011;3083;51.508;7.966;2023-07-16T11:56:22;5.63;;;3.43;;
6105;SDS011;3083;51.508;7.966;2023-07-16T11:58:49;5.73;;;3.90;;
6105;SDS011;3083;51.508;7.966;2023-07-16T12:01:16;8.07;;;3.87;;
6105;SDS011;3083;51.508;7.966;2023-07-16T12:03:44;6.87;;;4.00;;
6105;SDS011;3083;51.508;7.966;2023-07-16T12:06:11;6.43;;;3.80;;
6105;SDS011;3083;51.508;7.966;2023-07-16T12:08:38;6.77;;;3.87;;
6105;SDS011;3083;51.508;7.966;2023-07-16T12:11:05;7.23;;;3.30;;
6105;SDS011;3083;51.508;7.966;2023-07-16T12:13:32;6.90;;;3.37;;
6105;SDS011;3083;51.508;7.966;2023-07-16T12:15:59;8.03;;;3.40;;
6105;SDS011;3083;51.508;7.966;2023-07-16T12:18:26;5.87;;;2.97;;
6105;SDS011;3083;51.508;7.966;2023-07-16T12:20:54;6.70;;;3.47;;
6105;SDS011;3083;51.508;7.966;2023-07-16T12:23:21;6.40;;;3.67;;
6105;SDS011;3083;51.508;7.966;2023-07-16T12:25:48;7.10;;;3.80;;
6105;SDS011;3083;51.508;7.966;2023-07-16T12:28:16;6.27;;;3.43;;
6105;SDS011;3083;51.508;7.966;2023-07-16T12:30:42;6.47;;;3.53;;
6105;SDS011;3083;51.508;7.966;2023-07-16T12:33:09;6.33;;;3.60;;
6105;SDS011;3083;51.508;7.966;2023-07-16T12:35:36;7.37;;;3.60;;
6105;SDS011;3083;51.508;7.966;2023-07-16T12:38:04;5.53;;;3.10;;
6105;SDS011;3083;51.508;7.966;2023-07-16T12:40:31;6.37;;;3.80;;
6105;SDS011;3083;51.508;7.966;2023-07-16T12:43:04;6.77;;;3.23;;
6105;SDS011;3083;51.508;7.966;2023-07-16T12:45:31;6.63;;;3.47;;
6105;SDS011;3083;51.508;7.966;2023-07-16T12:47:58;6.67;;;3.83;;
6105;SDS011;3083;51.508;7.966;2023-07-16T12:50:25;5.53;;;3.50;;
6105;SDS011;3083;51.508;7.966;2023-07-16T12:52:54;6.30;;;3.60;;
6105;SDS011;3083;51.508;7.966;2023-07-16T12:55:22;6.27;;;3.60;;
6105;SDS011;3083;51.508;7.966;2023-07-16T12:57:49;6.30;;;3.13;;
6105;SDS011;3083;51.508;7.966;2023-07-16T13:00:16;8.40;;;3.70;;
6105;SDS011;3083;51.508;7.966;2023-07-16T13:02:43;7.47;;;3.60;;
6105;SDS011;3083;51.508;7.966;2023-07-16T13:05:10;6.03;;;3.60;;
6105;SDS011;3083;51.508;7.966;2023-07-16T13:07:37;5.87;;;3.30;;
6105;SDS011;3083;51.508;7.966;2023-07-16T13:10:04;5.60;;;3.60;;
6105;SDS011;3083;51.508;7.966;2023-07-16T13:12:33;7.40;;;3.37;;
6105;SDS011;3083;51.508;7.966;2023-07-16T13:15:00;5.90;;;3.70;;
6105;SDS011;3083;51.508;7.966;2023-07-16T13:17:26;7.23;;;3.87;;
6105;SDS011;3083;51.508;7.966;2023-07-16T13:19:53;7.00;;;3.87;;
6105;SDS011;3083;51.508;7.966;2023-07-16T13:22:20;10.57;;;3.40;;
6105;SDS011;3083;51.508;7.966;2023-07-16T13:24:47;6.00;;;3.20;;
6105;SDS011;3083;51.508;7.966;2023-07-16T13:27:19;5.63;;;3.37;;
6105;SDS011;3083;51.508;7.966;2023-07-16T13:29:47;5.80;;;3.23;;
6105;SDS011;3083;51.508;7.966;2023-07-16T13:32:14;7.40;;;3.33;;
6105;SDS011;3083;51.508;7.966;2023-07-16T13:34:41;6.67;;;3.30;;
6105;SDS011;3083;51.508;7.966;2023-07-16T13:37:08;6.80;;;3.33;;
6105;SDS011;3083;51.508;7.966;2023-07-16T13:39:35;6.97;;;3.67;;
6105;SDS011;3083;51.508;7.966;2023-07-16T13:42:02;7.20;;;3.43;;
6105;SDS011;3083;51.508;7.966;2023-07-16T13:44:31;6.13;;;3.33;;
6105;SDS011;3083;51.508;7.966;2023-07-16T13:46:59;7.00;;;3.47;;
6105;SDS011;3083;51.508;7.966;2023-07-16T13:49:26;6.53;;;3.50;;
6105;SDS011;3083;51.508;7.966;2023-07-16T13:51:53;6.67;;;3.53;;
6105;SDS011;3083;51.508;7.966;2023-07-16T13:54:19;8.73;;;3.77;;
6105;SDS011;3083;51.508;7.966;2023-07-16T13:56:47;6.20;;;3.37;;
6105;SDS011;3083;51.508;7.966;2023-07-16T13:59:14;5.67;;;3.63;;
6105;SDS011;3083;51.508;7.966;2023-07-16T14:01:41;8.47;;;4.00;;
6105;SDS011;3083;51.508;7.966;2023-07-16T14:04:09;9.57;;;4.83;;
6105;SDS011;3083;51.508;7.966;2023-07-16T14:06:36;6.53;;;4.23;;
6105;SDS011;3083;51.508;7.966;2023-07-16T14:09:03;7.53;;;3.60;;
6105;SDS011;3083;51.508;7.966;2023-07-16T14:11:31;6.77;;;3.40;;
6105;SDS011;3083;51.508;7.966;2023-07-16T14:13:57;9.30;;;3.67;;
6105;SDS011;3083;51.508;7.966;2023-07-16T14:16:24;5.67;;;3.80;;
6105;SDS011;3083;51.508;7.966;2023-07-16T14:18:52;6.87;;;3.43;;
6105;SDS011;3083;51.508;7.966;2023-07-16T14:21:21;7.50;;;3.57;;
6105;SDS011;3083;51.508;7.966;2023-07-16T14:23:48;8.13;;;3.40;;
6105;SDS011;3083;51.508;7.966;2023-07-16T14:26:15;7.50;;;4.10;;
6105;SDS011;3083;51.508;7.966;2023-07-16T14:28:42;7.30;;;3.50;;
6105;SDS011;3083;51.508;7.966;2023-07-16T14:31:09;7.60;;;4.20;;
6105;SDS011;3083;51.508;7.966;2023-07-16T14:33:36;7.37;;;3.90;;
6105;SDS011;3083;51.508;7.966;2023-07-16T14:36:03;10.13;;;3.40;;
6105;SDS011;3083;51.508;7.966;2023-07-16T14:38:31;7.30;;;3.93;;
6105;SDS011;3083;51.508;7.966;2023-07-16T14:40:58;8.10;;;3.90;;
6105;SDS011;3083;51.508;7.966;2023-07-16T14:43:26;7.13;;;3.50;;
6105;SDS011;3083;51.508;7.966;2023-07-16T14:45:52;6.20;;;3.47;;
6105;SDS011;3083;51.508;7.966;2023-07-16T14:48:19;9.97;;;4.67;;
6105;SDS011;3083;51.508;7.966;2023-07-16T14:50:48;9.90;;;4.33;;
6105;SDS011;3083;51.508;7.966;2023-07-16T14:53:15;6.70;;;3.67;;
6105;SDS011;3083;51.508;7.966;2023-07-16T14:55:47;7.27;;;3.73;;
6105;SDS011;3083;51.508;7.966;2023-07-16T14:58:14;9.47;;;4.40;;
6105;SDS011;3083;51.508;7.966;2023-07-16T15:00:41;6.40;;;4.10;;
6105;SDS011;3083;51.508;7.966;2023-07-16T15:03:08;9.90;;;3.90;;
6105;SDS011;3083;51.508;7.966;2023-07-16T15:05:35;9.83;;;4.00;;
6105;SDS011;3083;51.508;7.966;2023-07-16T15:08:02;5.97;;;3.87;;
6105;SDS011;3083;51.508;7.966;2023-07-16T15:10:30;6.47;;;3.80;;
6105;SDS011;3083;51.508;7.966;2023-07-16T15:12:59;7.37;;;4.00;;
6105;SDS011;3083;51.508;7.966;2023-07-16T15:15:25;8.50;;;4.30;;
6105;SDS011;3083;51.508;7.966;2023-07-16T15:17:52;6.10;;;3.60;;